Detalhes do Voo

Voltar

 DETALHES DO VÔO

Piloto: GLD1432 Higor R. Aeronave: AIRBUS Distância: 179NM
Origem: SBDB Destino: SBCR Duração: 2.01
Validação: Validado Tipo: Charter Matrícula: PR-GYN
ZFW: 4021 Block Fuel/Init FOB 731/0 Combustível em Voo 731
Passageiros: 2 Carga: 50 Alternativo: SBCR
Hora da Decolagem: 2338 Velocidade de Cruzeiro: 130 Nível de Voo: 3000
Regra Visual: VFR ICAO da Aeronave: EC35 Unidade de Peso: Kg
Data: 25/01/2024 Observação: GOLD ACARS Rede: IVAO
Acidentou?: Não Comentários do Validador: Pontuação do Voo 121.495

 ROTA

ROTA 2102S05651W 2054S05651W 1940S05700W 1915S05703W 1834S05730W 1753S05727W 1712S05701W 1616S05639W
REMARKS OPR/GOLD VIRTUAL AIRLINES PER/A RMK/FROM SBDB RMK/PIC GLD1432 STS/SAR DOF/240126

 PENALIDADES DO VOO

Para entender como cada item é pontuado, consulte as regras de avaliação.

Nenhuma penalidade registrada para este voo.

 ANÁLISE DO POUSO

Vento durante o pouso: 270º/1 kt Proa durante o pouso: 165
V/S do Pouso: -103 ft/min IAS do Pouso: 2 kt
Força G no pouso: 0.2624 G Bank no pouso: -1.54
Pitch no Pouso 4.99 Flaps no Pouso 0
Nav Lights ON Landing Lights ON
Beacon Lights ON Strobe Lights ON

 MAPA DO VOO

 PERFIL VERTICAL DO VOO

 EVENTOS PRINCIPAIS DO VOO

DATAEVENTOIASALTITUDE
2024-01-25 23:38:26 GOLD ACARS VERSION 3.2.0.000
2024-01-25 23:38:26 BOARDING01099
2024-01-25 23:38:26 LITTLENAVMAP ON01099
2024-01-25 23:38:39 BCN LIGHTS ON01099
2024-01-25 23:39:43 STARTING ENGINE 201099
2024-01-25 23:40:26 STARTING ENGINE 101099
2024-01-25 23:45:57 NAV LIGHTS ON01099
2024-01-25 23:45:58 STB LIGHTS ON01099
2024-01-25 23:46:56 CLIMBING13346
2024-01-25 23:47:30 AP ENGAGED33440
2024-01-25 23:48:52 CRUISE98649
2024-01-25 23:52:03 CLIMBING88923
2024-01-25 23:52:07 CRUISE87931
2024-01-26 00:41:14 CLIMBING106668
2024-01-26 00:41:38 CRUISE86721
2024-01-26 01:04:26 AP DISENGAGED95733
2024-01-26 01:04:50 LANDING131545
2024-01-26 01:05:49 CLIMBING42334
2024-01-26 01:06:15 CRUISE30445
2024-01-26 01:06:25 LANDING57443
2024-01-26 01:06:32 AP ENGAGED85406
2024-01-26 01:11:51 AP DISENGAGED75682
2024-01-26 01:11:52 AP ENGAGED77682
2024-01-26 01:11:57 AP DISENGAGED84655
2024-01-26 01:12:41 STALL51200
2024-01-26 01:12:41 RECOVER FROM STALL50198
2024-01-26 01:12:42 STALL49194
2024-01-26 01:12:48 RECOVER FROM STALL41174
2024-01-26 01:12:55 STALL24169
2024-01-26 01:13:00 RECOVER FROM STALL19161
2024-01-26 01:13:55 CLIMBING60144
2024-01-26 01:14:11 AP ENGAGED59212
2024-01-26 01:15:08 CRUISE46574
2024-01-26 01:15:16 LANDING81547
2024-01-26 01:34:33 AP DISENGAGED107487
2024-01-26 01:34:35 AP ENGAGED107483
2024-01-26 01:34:42 AP DISENGAGED108449
2024-01-26 01:34:42 CLIMBING106449
2024-01-26 01:34:48 CRUISE85486
2024-01-26 01:35:01 LANDING71482
2024-01-26 01:36:17 STALL52337
2024-01-26 01:36:54 RECOVER FROM STALL25176
2024-01-26 01:36:54 STALL24176
2024-01-26 01:36:56 RECOVER FROM STALL22172
2024-01-26 01:37:14 STALL22159
2024-01-26 01:37:25 RECOVER FROM STALL2143
2024-01-26 01:37:39 STALL2144
2024-01-26 01:37:42 LANDED - VS: -103 ft/min 1143
2024-01-26 01:37:42 RECOVER FROM STALL1143
2024-01-26 01:38:10 LND LIGHTS OFF0143
2024-01-26 01:38:11 STB LIGHTS OFF0143
2024-01-26 01:38:21 STOPPING ENGINE 10143
2024-01-26 01:38:38 STOPPING ENGINE 20143
2024-01-26 01:38:58 BCN LIGHTS OFF0143
2024-01-26 01:39:08 LANDED NOT IN THE PLANNED AIRPORT [SBCY] - [lat: -19,0135363843442] - [long: -57,6611804681057]0143
2024-01-26 01:39:09 FLIGHT FINISHED0143

 DADOS DO ACARS

DATA IAS GS ALTITUDE COMBUSTÍVEL USADO OAT FASE DO VOO
2024-01-25 23:40:27 0 0 1099 5 14 BOARDING
2024-01-25 23:41:27 0 0 1099 6 14 BOARDING
2024-01-25 23:42:28 0 0 1099 7 14 BOARDING
2024-01-25 23:43:29 0 0 1099 9 14 BOARDING
2024-01-25 23:44:29 0 0 1099 11 14 BOARDING
2024-01-25 23:45:30 0 0 1099 12 14 BOARDING
2024-01-25 23:46:31 0 0 1099 20 14 BOARDING
2024-01-25 23:47:31 34 37 442 23 14 BOARDING
2024-01-25 23:48:32 93 95 612 25 13 CLIMBING
2024-01-25 23:49:33 101 104 710 28 12 CLIMBING
2024-01-25 23:50:34 98 101 785 31 12 CRUISE
2024-01-25 23:51:34 91 94 869 33 12 CRUISE
2024-01-25 23:52:35 97 101 932 36 11 CRUISE
2024-01-25 23:53:35 98 102 922 38 11 CRUISE
2024-01-25 23:54:36 104 108 918 41 13 CRUISE
2024-01-25 23:55:37 102 107 916 44 12 CRUISE
2024-01-25 23:56:38 101 106 919 47 12 CRUISE
2024-01-25 23:57:38 99 104 925 49 12 CRUISE
2024-01-25 23:58:39 100 104 931 52 12 CRUISE
2024-01-25 23:59:40 99 103 933 55 12 CRUISE
2024-01-26 00:00:41 102 106 932 57 13 CRUISE
2024-01-26 00:01:41 115 119 916 60 12 CRUISE
2024-01-26 00:02:42 112 118 890 63 12 CRUISE
2024-01-26 00:03:43 112 118 915 65 12 CRUISE
2024-01-26 00:04:43 109 115 914 68 13 CRUISE
2024-01-26 00:05:44 111 118 915 71 13 CRUISE
2024-01-26 00:06:45 109 115 919 73 12 CRUISE
2024-01-26 00:07:45 112 118 917 76 13 CRUISE
2024-01-26 00:08:46 106 112 915 79 13 CRUISE
2024-01-26 00:09:47 110 116 920 81 11 CRUISE
2024-01-26 00:10:47 106 112 919 84 12 CRUISE
2024-01-26 00:11:48 98 104 927 87 12 CRUISE
2024-01-26 00:12:49 97 103 935 90 13 CRUISE
2024-01-26 00:13:49 97 103 938 92 13 CRUISE
2024-01-26 00:14:50 96 101 938 95 12 CRUISE
2024-01-26 00:15:51 96 101 940 98 11 CRUISE
2024-01-26 00:16:51 95 100 941 100 12 CRUISE
2024-01-26 00:17:52 94 99 943 103 11 CRUISE
2024-01-26 00:18:53 93 97 942 106 12 CRUISE
2024-01-26 00:19:54 94 99 947 108 11 CRUISE
2024-01-26 00:20:54 93 98 946 111 12 CRUISE
2024-01-26 00:21:55 91 97 947 114 12 CRUISE
2024-01-26 00:22:56 93 97 947 117 11 CRUISE
2024-01-26 00:23:56 90 93 947 119 11 CRUISE
2024-01-26 00:24:57 89 94 949 122 11 CRUISE
2024-01-26 00:25:58 90 95 951 125 12 CRUISE
2024-01-26 00:26:58 89 94 952 127 11 CRUISE
2024-01-26 00:27:59 89 94 952 130 12 CRUISE
2024-01-26 00:29:00 90 94 951 133 11 CRUISE
2024-01-26 00:30:01 90 95 951 135 12 CRUISE
2024-01-26 00:31:01 91 96 952 138 12 CRUISE
2024-01-26 00:32:02 92 97 951 141 11 CRUISE
2024-01-26 00:33:02 92 97 950 144 12 CRUISE
2024-01-26 00:34:03 90 95 948 146 11 CRUISE
2024-01-26 00:35:04 90 95 950 149 11 CRUISE
2024-01-26 00:36:05 90 96 951 152 12 CRUISE
2024-01-26 00:37:06 91 95 950 154 11 CRUISE
2024-01-26 00:38:06 90 95 951 157 10 CRUISE
2024-01-26 00:39:07 91 95 952 160 10 CRUISE
2024-01-26 00:40:08 91 95 953 162 10 CRUISE
2024-01-26 00:41:08 122 126 663 165 11 CRUISE
2024-01-26 00:42:09 91 95 739 166 11 CRUISE
2024-01-26 00:43:10 91 94 739 169 11 CRUISE
2024-01-26 00:44:11 94 98 740 171 11 CRUISE
2024-01-26 00:45:11 95 98 737 174 10 CRUISE
2024-01-26 00:46:12 95 99 736 177 10 CRUISE
2024-01-26 00:47:13 96 100 735 179 10 CRUISE
2024-01-26 00:48:13 98 101 732 182 10 CRUISE
2024-01-26 00:49:14 97 101 734 185 10 CRUISE
2024-01-26 00:50:15 98 102 734 188 10 CRUISE
2024-01-26 00:51:16 97 101 733 190 10 CRUISE
2024-01-26 00:52:16 96 100 736 193 10 CRUISE
2024-01-26 00:53:17 95 99 733 196 10 CRUISE
2024-01-26 00:54:18 96 100 735 198 10 CRUISE
2024-01-26 00:55:19 96 100 736 201 10 CRUISE
2024-01-26 00:56:19 96 100 736 204 10 CRUISE
2024-01-26 00:57:20 97 101 736 206 10 CRUISE
2024-01-26 00:58:20 96 100 739 209 10 CRUISE
2024-01-26 00:59:21 95 98 733 212 10 CRUISE
2024-01-26 01:00:22 96 100 734 214 10 CRUISE
2024-01-26 01:01:23 95 99 732 217 10 CRUISE
2024-01-26 01:02:23 95 99 734 220 10 CRUISE
2024-01-26 01:03:24 96 100 734 222 10 CRUISE
2024-01-26 01:04:25 95 100 733 225 10 CRUISE
2024-01-26 01:05:26 64 64 348 227 13 CRUISE
2024-01-26 01:06:26 61 63 441 230 12 LANDING
2024-01-26 01:07:27 61 63 466 232 12 LANDING
2024-01-26 01:08:27 55 57 595 235 11 LANDING
2024-01-26 01:09:28 65 68 684 237 11 LANDING
2024-01-26 01:10:29 76 79 684 240 11 LANDING
2024-01-26 01:11:30 76 79 683 242 11 LANDING
2024-01-26 01:12:30 90 92 213 244 14 LANDING
2024-01-26 01:13:31 48 47 133 246 14 LANDING
2024-01-26 01:14:32 39 37 333 249 13 LANDING
2024-01-26 01:15:33 107 108 485 252 12 CLIMBING
2024-01-26 01:16:34 109 111 517 254 12 LANDING
2024-01-26 01:17:34 108 110 519 257 12 LANDING
2024-01-26 01:18:35 106 108 521 259 12 LANDING
2024-01-26 01:19:36 108 110 554 262 12 LANDING
2024-01-26 01:20:37 107 109 558 265 11 LANDING
2024-01-26 01:21:37 104 106 558 268 11 LANDING
2024-01-26 01:22:38 105 106 555 270 11 LANDING
2024-01-26 01:23:38 101 103 559 273 11 LANDING
2024-01-26 01:24:39 102 104 555 276 11 LANDING
2024-01-26 01:25:40 100 102 557 278 11 LANDING
2024-01-26 01:26:41 106 108 557 281 11 LANDING
2024-01-26 01:27:41 116 118 542 284 12 LANDING
2024-01-26 01:28:42 118 120 544 286 12 LANDING
2024-01-26 01:29:43 124 127 526 289 12 LANDING
2024-01-26 01:30:44 118 120 541 292 12 LANDING
2024-01-26 01:31:44 119 121 544 294 12 LANDING
2024-01-26 01:32:45 118 121 539 297 12 LANDING
2024-01-26 01:33:45 117 120 539 300 12 LANDING
2024-01-26 01:34:47 89 90 480 302 13 LANDING
2024-01-26 01:35:47 48 47 463 304 13 CLIMBING
2024-01-26 01:36:48 29 29 198 306 14 LANDING
2024-01-26 01:37:49 0 0 143 309 15 LANDING
2024-01-26 01:38:49 0 0 143 311 15 LANDED - VS: -103 ft/min